Terminal Aerodrome Forecast
Issued by NWS Burlington, VT

Home | Current Version | Previous Version | Text Only | Print | Product List | Glossary On
Versions: 1 2 3 4 5 6 7 8 9 10 11 12 13 14 15 16
712
FTUS41 KBTV 192325
TAFBTV
TAF
KBTV 192325Z 2000/2024 32008KT P6SM VCSH SCT020 OVC035
      TEMPO 2000/2004 3SM -RASN BR OVC020
     FM200400 31008G16KT 6SM -SN BR OVC020
      TEMPO 2004/2008 3SM -SN BR OVC015
     FM201600 31009G20KT P6SM VCSH OVC025
     FM202100 31012KT P6SM OVC035=

USA.gov is the U.S. government's official web portal to all federal, state and local government web resources and services.